Time;durP1;ratioP1;P1;durP2;ratioP2;P2;SDS_P1;SDS_P2;PMS_P1;PMS_P2;Temp;Humidity;BMP_temperature;BMP_pressure;BME280_temperature;BME280_humidity;BME280_pressure;Samples;Min_cycle;Max_cycle;Signal;HPM_P1;HPM_P2
2022/11/21 00:00:45;;;;;;;15.47;13.40;;;-1.40;89.20;;;;;;5055549;28;20208;-86
2022/11/21 00:03:11;;;;;;;15.33;13.40;;;-1.40;89.50;;;;;;5055876;28;20183;-86
2022/11/21 00:05:42;;;;;;;19.63;13.80;;;-1.40;89.70;;;;;;5055360;28;20212;-86
2022/11/21 00:08:08;;;;;;;15.43;13.83;;;-1.30;89.80;;;;;;5055585;28;20188;-85
2022/11/21 00:10:35;;;;;;;16.07;13.77;;;-1.30;89.70;;;;;;5055293;28;20176;-85
2022/11/21 00:13:00;;;;;;;19.10;13.63;;;-1.20;89.70;;;;;;5055380;28;20242;-86
2022/11/21 00:15:26;;;;;;;15.33;13.73;;;-1.10;89.70;;;;;;5056745;28;20737;-86
2022/11/21 00:17:52;;;;;;;18.07;13.10;;;-1.10;89.70;;;;;;5055230;28;20174;-86
2022/11/21 00:20:19;;;;;;;14.53;12.60;;;-1.10;89.70;;;;;;5056600;28;20181;-86
2022/11/21 00:22:45;;;;;;;13.37;12.07;;;-1.10;89.60;;;;;;5056291;28;20761;-86
2022/11/21 00:25:12;;;;;;;15.43;12.73;;;-1.10;89.60;;;;;;5056257;28;20220;-86
2022/11/21 00:27:37;;;;;;;13.80;12.37;;;-1.20;89.50;;;;;;5056273;28;20176;-86
2022/11/21 00:30:05;;;;;;;14.73;12.53;;;-1.20;89.50;;;;;;5054944;28;20622;-86
2022/11/21 00:32:31;;;;;;;12.40;11.10;;;-1.20;89.40;;;;;;5054877;28;20185;-86
2022/11/21 00:34:56;;;;;;;14.20;12.03;;;-1.20;89.40;;;;;;5055949;28;20596;-86
2022/11/21 00:37:22;;;;;;;14.23;11.53;;;-1.20;89.30;;;;;;5056399;28;20221;-86
2022/11/21 00:39:47;;;;;;;12.60;11.30;;;-1.20;89.30;;;;;;5056011;28;20187;-86
2022/11/21 00:42:13;;;;;;;13.07;11.63;;;-1.20;89.30;;;;;;5055525;28;20216;-86
2022/11/21 00:44:38;;;;;;;13.47;11.63;;;-1.20;89.20;;;;;;5054672;28;20220;-86
2022/11/21 00:47:04;;;;;;;12.87;10.93;;;-1.30;89.10;;;;;;5054631;28;20629;-86
2022/11/21 00:49:29;;;;;;;15.33;11.33;;;-1.30;89.10;;;;;;5055843;28;20178;-86
2022/11/21 00:51:55;;;;;;;14.40;12.00;;;-1.30;89.00;;;;;;5054533;28;20272;-86
2022/11/21 00:54:20;;;;;;;13.13;11.80;;;-1.40;88.80;;;;;;5054465;28;20182;-85
2022/11/21 00:56:46;;;;;;;13.70;12.27;;;-1.50;88.80;;;;;;5054503;28;20230;-86
2022/11/21 00:59:11;;;;;;;13.47;12.00;;;-1.50;89.00;;;;;;5055316;28;20172;-86
2022/11/21 01:01:37;;;;;;;14.10;11.63;;;-1.50;89.20;;;;;;5054393;28;20671;-86
2022/11/21 01:04:03;;;;;;;15.67;12.10;;;-1.50;89.40;;;;;;5054347;28;20210;-87
2022/11/21 01:06:29;;;;;;;13.10;11.10;;;-1.40;89.50;;;;;;5055008;28;20219;-85
2022/11/21 01:08:54;;;;;;;12.80;11.50;;;-1.40;89.50;;;;;;5054393;28;20173;-85
2022/11/21 01:11:20;;;;;;;12.77;11.00;;;-1.30;89.40;;;;;;5055500;28;20172;-85
2022/11/21 01:13:47;;;;;;;13.17;11.10;;;-1.40;89.40;;;;;;5054069;28;20200;-85
2022/11/21 01:16:15;;;;;;;11.93;10.20;;;-1.40;89.30;;;;;;5054078;28;20197;-85
2022/11/21 01:18:41;;;;;;;12.77;10.40;;;-1.50;89.20;;;;;;5053937;28;20191;-86
2022/11/21 01:21:13;;;;;;;12.13;10.83;;;-1.50;89.10;;;;;;5055457;28;20165;-85
2022/11/21 01:23:41;;;;;;;11.57;10.20;;;-1.50;89.10;;;;;;5055192;28;20684;-86
2022/11/21 01:26:10;;;;;;;12.57;10.50;;;-1.50;89.10;;;;;;5053791;28;20212;-85
2022/11/21 01:28:36;;;;;;;11.03;9.93;;;-1.60;89.00;;;;;;5055072;28;20184;-85
2022/11/21 01:31:06;;;;;;;10.67;9.23;;;-1.60;89.00;;;;;;5055260;28;20173;-85
2022/11/21 01:33:32;;;;;;;10.23;9.23;;;-1.60;88.90;;;;;;5054230;28;20195;-85
2022/11/21 01:36:24;;;;;;;10.23;9.23;;;-1.60;88.90;;;;;;5054934;28;20196;-85
2022/11/21 01:38:53;;;;;;;10.43;9.00;;;-1.50;88.90;;;;;;5053048;28;20215;-86
2022/11/21 01:41:24;;;;;;;11.50;8.97;;;-1.50;88.80;;;;;;5054824;28;20180;-87
2022/11/21 01:43:50;;;;;;;11.37;10.17;;;-1.60;88.70;;;;;;5053662;28;20172;-87
2022/11/21 01:46:18;;;;;;;10.80;8.93;;;-1.50;88.70;;;;;;5053406;28;20300;-85
2022/11/21 01:48:58;;;;;;;10.37;9.37;;;-1.50;88.60;;;;;;5053480;28;20177;-85
2022/11/21 01:51:57;;;;;;;10.47;9.37;;;-1.50;88.60;;;;;;5053863;28;20172;-86
2022/11/21 01:54:35;;;;;;;12.60;10.03;;;-1.50;88.50;;;;;;5054588;28;20157;-85
2022/11/21 01:57:19;;;;;;;14.13;9.63;;;-1.60;88.50;;;;;;5054891;28;20295;-86
2022/11/21 01:59:56;;;;;;;12.43;10.40;;;-1.60;88.40;;;;;;5054042;28;20197;-86
2022/11/21 02:02:27;;;;;;;10.57;9.47;;;-1.60;88.50;;;;;;5054206;28;20166;-85
2022/11/21 02:04:53;;;;;;;10.83;9.73;;;-1.50;88.50;;;;;;5054305;28;20240;-85
2022/11/21 02:07:21;;;;;;;11.37;9.93;;;-1.60;88.40;;;;;;5054911;28;20658;-86
2022/11/21 02:09:52;;;;;;;12.77;10.53;;;-1.50;88.40;;;;;;5055969;28;20247;-87
2022/11/21 02:12:28;;;;;;;13.53;9.80;;;-1.50;88.30;;;;;;5054287;28;20169;-86
2022/11/21 02:14:55;;;;;;;10.20;9.20;;;-1.50;88.30;;;;;;5054863;28;20197;-85
2022/11/21 02:17:21;;;;;;;11.30;9.23;;;-1.50;88.20;;;;;;5054544;28;20661;-85
2022/11/21 02:19:54;;;;;;;11.43;10.17;;;-1.60;88.20;;;;;;5055074;28;20181;-85
2022/11/21 02:22:31;;;;;;;10.93;9.83;;;-1.60;88.20;;;;;;5056703;28;20155;-85
2022/11/21 02:25:10;;;;;;;12.20;9.60;;;-1.60;88.10;;;;;;5056399;28;20689;-86
2022/11/21 02:27:36;;;;;;;10.80;9.67;;;-1.60;88.10;;;;;;5054441;28;20237;-85
2022/11/21 02:30:04;;;;;;;10.83;9.83;;;-1.60;88.10;;;;;;5056212;28;20177;-85
2022/11/21 02:32:45;;;;;;;11.37;10.03;;;-1.60;88.00;;;;;;5054517;28;20197;-85
2022/11/21 02:35:11;;;;;;;11.50;9.43;;;-1.60;88.00;;;;;;5054783;28;20687;-85
2022/11/21 02:37:36;;;;;;;10.53;9.43;;;-1.70;87.90;;;;;;5054785;28;20181;-86
2022/11/21 02:40:08;;;;;;;11.10;10.00;;;-1.70;87.90;;;;;;5054616;28;20172;-87
2022/11/21 02:42:57;;;;;;;14.20;10.60;;;-1.70;87.90;;;;;;5055298;28;20180;-85
2022/11/21 02:45:32;;;;;;;10.77;9.03;;;-1.70;87.80;;;;;;5054777;28;20208;-84
2022/11/21 02:47:57;;;;;;;11.80;10.37;;;-1.70;87.70;;;;;;5054998;28;20172;-85
2022/11/21 02:50:27;;;;;;;11.23;9.70;;;-1.70;87.60;;;;;;5054699;28;20179;-86
2022/11/21 02:52:54;;;;;;;11.80;10.60;;;-1.70;87.50;;;;;;5055609;28;20172;-87
2022/11/21 02:55:20;;;;;;;11.60;9.00;;;-1.80;87.50;;;;;;5054802;28;20217;-85
2022/11/21 02:57:45;;;;;;;11.30;10.20;;;-1.80;87.50;;;;;;5054979;28;20180;-85
2022/11/21 03:00:11;;;;;;;11.33;10.13;;;-1.80;87.40;;;;;;5056268;28;20704;-85
2022/11/21 03:02:37;;;;;;;11.83;10.37;;;-1.80;87.50;;;;;;5054945;28;20259;-86
2022/11/21 03:05:04;;;;;;;10.13;9.10;;;-1.90;87.40;;;;;;5054972;28;20305;-86
2022/11/21 03:07:30;;;;;;;12.77;10.93;;;-2.00;87.60;;;;;;5055655;28;20176;-85
2022/11/21 03:09:56;;;;;;;11.57;10.37;;;-2.00;87.70;;;;;;5054477;28;20202;-86
2022/11/21 03:12:21;;;;;;;12.37;10.50;;;-2.00;87.80;;;;;;5056616;28;20642;-85
2022/11/21 03:14:47;;;;;;;10.87;9.77;;;-2.00;87.80;;;;;;5056573;28;20242;-87
2022/11/21 03:17:12;;;;;;;12.20;10.37;;;-2.10;87.90;;;;;;5055624;28;20175;-86
2022/11/21 03:19:38;;;;;;;13.20;10.40;;;-2.10;88.10;;;;;;5054301;28;20180;-86
2022/11/21 03:22:03;;;;;;;11.40;10.07;;;-2.10;88.50;;;;;;5056374;28;20183;-85
2022/11/21 03:24:29;;;;;;;11.90;10.60;;;-2.10;88.80;;;;;;5055343;28;20616;-86
2022/11/21 03:26:54;;;;;;;11.83;9.80;;;-2.10;89.20;;;;;;5057052;28;20221;-85
2022/11/21 03:29:20;;;;;;;13.43;10.90;;;-2.10;89.50;;;;;;5057130;28;20176;-87
2022/11/21 03:31:45;;;;;;;13.53;10.30;;;-2.20;89.60;;;;;;5057171;28;20179;-86
2022/11/21 03:34:11;;;;;;;11.90;10.23;;;-2.20;89.80;;;;;;5055306;28;20242;-85
2022/11/21 03:36:36;;;;;;;12.80;10.83;;;-2.10;90.00;;;;;;5055522;28;20215;-86
2022/11/21 03:39:02;;;;;;;11.43;10.23;;;-2.10;90.10;;;;;;5057448;28;20178;-87
2022/11/21 03:41:28;;;;;;;12.10;10.43;;;-2.10;90.20;;;;;;5055878;28;20557;-85
2022/11/21 03:44:07;;;;;;;12.07;10.37;;;-2.10;90.10;;;;;;5055479;28;20175;-86
2022/11/21 03:46:36;;;;;;;12.00;10.47;;;-2.10;90.10;;;;;;5055959;28;20632;-87
2022/11/21 03:49:01;;;;;;;15.33;10.67;;;-2.10;90.20;;;;;;5056026;28;20176;-87
2022/11/21 03:51:27;;;;;;;12.37;10.60;;;-2.10;90.20;;;;;;5057147;28;20175;-87
2022/11/21 03:53:53;;;;;;;12.23;10.10;;;-2.10;90.30;;;;;;5056165;28;20179;-86
2022/11/21 03:56:18;;;;;;;13.20;10.43;;;-2.10;90.40;;;;;;5055990;28;20192;-85
2022/11/21 03:58:44;;;;;;;11.43;10.17;;;-2.10;90.50;;;;;;5056262;28;20191;-85
2022/11/21 04:01:12;;;;;;;10.97;9.73;;;-2.00;90.50;;;;;;5056315;28;20180;-87
2022/11/21 04:03:38;;;;;;;11.20;9.40;;;-2.00;90.60;;;;;;5057544;28;20187;-87
2022/11/21 04:06:03;;;;;;;12.40;9.97;;;-2.00;90.60;;;;;;5058060;28;20208;-87
2022/11/21 04:08:29;;;;;;;9.70;8.70;;;-2.00;90.50;;;;;;5058698;28;20249;-87
2022/11/21 04:10:54;;;;;;;10.53;9.47;;;-2.00;90.50;;;;;;5056679;28;20168;-86
2022/11/21 04:13:20;;;;;;;9.90;8.90;;;-2.00;90.40;;;;;;5056336;28;20198;-85
2022/11/21 04:15:46;;;;;;;11.40;9.27;;;-2.00;90.40;;;;;;5057802;28;20207;-87
2022/11/21 04:18:12;;;;;;;10.87;9.50;;;-2.10;90.30;;;;;;5057032;28;20184;-85
2022/11/21 04:20:38;;;;;;;10.93;9.83;;;-2.10;90.30;;;;;;5057239;28;20185;-86
2022/11/21 04:23:04;;;;;;;11.63;10.07;;;-2.10;90.30;;;;;;5060949;28;20552;-87
2022/11/21 04:25:29;;;;;;;13.70;10.83;;;-2.10;90.20;;;;;;5061941;28;20204;-86
2022/11/21 04:27:56;;;;;;;13.40;11.17;;;-2.00;90.20;;;;;;5060679;28;20172;-87
2022/11/21 04:30:22;;;;;;;14.30;11.07;;;-2.00;90.30;;;;;;5062070;28;20168;-87
2022/11/21 04:32:53;;;;;;;12.27;10.97;;;-2.00;90.40;;;;;;5061537;28;20172;-87
2022/11/21 04:35:19;;;;;;;12.87;11.50;;;-2.00;90.40;;;;;;5061023;28;20237;-87
2022/11/21 04:37:45;;;;;;;14.30;12.53;;;-2.00;90.50;;;;;;5062799;28;20263;-87
2022/11/21 04:40:12;;;;;;;14.43;11.83;;;-2.00;90.50;;;;;;5061194;28;20216;-87
2022/11/21 04:42:40;;;;;;;11.53;10.33;;;-2.00;90.60;;;;;;5063084;28;20176;-87
2022/11/21 04:45:06;;;;;;;12.90;10.87;;;-2.00;90.60;;;;;;5062443;28;20208;-87
2022/11/21 04:47:36;;;;;;;12.00;10.70;;;-2.00;90.50;;;;;;5061698;28;20172;-87
2022/11/21 04:50:01;;;;;;;16.43;12.00;;;-2.00;90.50;;;;;;5061636;28;20538;-87
2022/11/21 04:52:27;;;;;;;13.27;11.37;;;-2.00;90.50;;;;;;5062651;28;20180;-87
2022/11/21 04:54:52;;;;;;;17.43;12.63;;;-2.00;90.50;;;;;;5056485;28;20226;-84
2022/11/21 04:57:18;;;;;;;15.80;12.20;;;-2.10;90.40;;;;;;5054327;28;20705;-85
2022/11/21 04:59:43;;;;;;;16.63;12.90;;;-2.10;90.50;;;;;;5054258;28;20267;-84
2022/11/21 05:02:10;;;;;;;12.77;11.33;;;-2.10;90.50;;;;;;5054296;28;20186;-85
2022/11/21 05:04:35;;;;;;;12.00;10.67;;;-2.10;90.40;;;;;;5054041;28;20263;-84
2022/11/21 05:07:01;;;;;;;13.07;11.67;;;-2.20;90.30;;;;;;5055735;28;20256;-85
2022/11/21 05:09:26;;;;;;;13.30;11.13;;;-2.30;90.30;;;;;;5055353;28;20258;-85
2022/11/21 05:14:35;;;;;;;14.73;11.63;;;-2.30;90.20;;;;;;5055291;28;20570;-84
2022/11/21 05:17:01;;;;;;;13.13;11.73;;;-2.30;90.20;;;;;;5055211;28;20179;-84
2022/11/21 05:19:26;;;;;;;13.17;11.77;;;-2.30;90.20;;;;;;5054280;28;20218;-84
2022/11/21 05:21:52;;;;;;;14.67;11.87;;;-2.30;90.20;;;;;;5054092;28;20171;-84
2022/11/21 05:24:18;;;;;;;15.20;11.60;;;-2.20;90.40;;;;;;5053915;28;20569;-84
2022/11/21 05:26:43;;;;;;;16.63;13.67;;;-2.20;90.50;;;;;;5053705;28;20577;-84
2022/11/21 05:29:09;;;;;;;17.23;14.20;;;-2.20;90.70;;;;;;5055027;28;20202;-84
2022/11/21 05:31:34;;;;;;;14.30;12.60;;;-2.10;90.90;;;;;;5053758;28;20590;-84
2022/11/21 05:34:00;;;;;;;16.93;13.90;;;-2.20;91.00;;;;;;5052760;28;20192;-84
2022/11/21 05:36:25;;;;;;;17.70;13.00;;;-2.20;91.00;;;;;;5053674;28;20196;-85
2022/11/21 05:38:51;;;;;;;14.73;12.60;;;-2.30;91.00;;;;;;5053595;28;20179;-84
2022/11/21 05:41:16;;;;;;;17.20;13.80;;;-2.40;91.10;;;;;;5053597;28;20182;-84
2022/11/21 05:43:44;;;;;;;18.67;12.77;;;-2.40;91.20;;;;;;5054819;28;20169;-85
2022/11/21 05:46:18;;;;;;;20.13;14.20;;;-2.50;91.10;;;;;;5053222;28;20578;-84
2022/11/21 05:48:44;;;;;;;17.83;14.90;;;-2.50;91.30;;;;;;5054735;28;20150;-84
2022/11/21 05:51:10;;;;;;;18.13;14.93;;;-2.50;91.40;;;;;;5054648;28;20212;-85
2022/11/21 05:53:35;;;;;;;18.80;15.17;;;-2.50;91.50;;;;;;5053323;28;20285;-84
2022/11/21 05:56:07;;;;;;;18.03;14.93;;;-2.50;91.60;;;;;;5054468;28;20703;-84
2022/11/21 05:58:33;;;;;;;19.23;14.67;;;-2.40;91.70;;;;;;5053373;28;20187;-84
2022/11/21 06:00:59;;;;;;;22.93;16.23;;;-2.40;91.80;;;;;;5054705;28;20173;-84
2022/11/21 06:03:25;;;;;;;20.37;16.77;;;-2.40;91.90;;;;;;5053082;28;20184;-84
2022/11/21 06:06:02;;;;;;;20.20;16.03;;;-2.30;92.00;;;;;;5054328;28;20197;-84
2022/11/21 06:08:29;;;;;;;21.83;15.93;;;-2.20;92.10;;;;;;5053188;28;20165;-84
2022/11/21 06:10:55;;;;;;;26.07;16.93;;;-2.10;92.20;;;;;;5054169;28;20179;-84
2022/11/21 06:13:21;;;;;;;21.63;15.87;;;-2.00;92.20;;;;;;5052891;28;20171;-84
2022/11/21 06:15:52;;;;;;;22.37;17.47;;;-2.00;92.30;;;;;;5052933;28;20203;-84
2022/11/21 06:18:19;;;;;;;20.90;15.73;;;-2.10;92.10;;;;;;5053753;28;20255;-85
2022/11/21 06:20:45;;;;;;;19.73;15.10;;;-2.20;92.10;;;;;;5052776;28;20182;-84
2022/11/21 06:23:11;;;;;;;22.70;16.30;;;-2.20;92.00;;;;;;5052796;28;20203;-84
2022/11/21 06:25:37;;;;;;;20.50;16.47;;;-2.30;91.90;;;;;;5053925;28;20355;-84
2022/11/21 06:28:02;;;;;;;23.77;16.80;;;-2.50;91.80;;;;;;5053043;28;20221;-84
2022/11/21 06:30:28;;;;;;;22.67;17.23;;;-2.50;91.80;;;;;;5052586;28;20173;-84
2022/11/21 06:32:53;;;;;;;23.30;17.80;;;-2.60;91.70;;;;;;5052509;28;20189;-85
2022/11/21 06:35:19;;;;;;;23.60;17.27;;;-2.60;91.70;;;;;;5054221;28;20263;-85
2022/11/21 06:37:44;;;;;;;21.80;17.63;;;-2.60;91.80;;;;;;5053772;28;20184;-84
2022/11/21 06:40:10;;;;;;;22.33;16.93;;;-2.60;91.80;;;;;;5052490;28;20188;-84
2022/11/21 06:42:37;;;;;;;23.70;17.40;;;-2.60;91.70;;;;;;5052283;28;20184;-85
2022/11/21 06:45:02;;;;;;;21.67;17.03;;;-2.60;91.70;;;;;;5052246;28;20210;-84
2022/11/21 06:47:32;;;;;;;25.00;18.07;;;-2.60;91.90;;;;;;5052364;28;20608;-84
2022/11/21 06:49:57;;;;;;;22.50;17.10;;;-2.60;91.90;;;;;;5052328;28;20199;-84
2022/11/21 06:52:23;;;;;;;23.53;17.50;;;-2.60;91.90;;;;;;5053683;28;20178;-84
2022/11/21 06:54:48;;;;;;;25.07;18.43;;;-2.50;91.90;;;;;;5052192;28;20670;-85
2022/11/21 06:57:14;;;;;;;25.17;18.47;;;-2.60;91.80;;;;;;5052462;28;20306;-84
2022/11/21 06:59:39;;;;;;;24.30;18.20;;;-2.60;91.80;;;;;;5053431;28;20531;-84
2022/11/21 07:02:05;;;;;;;22.33;17.90;;;-2.60;91.80;;;;;;5053464;28;20179;-85
2022/11/21 07:04:30;;;;;;;23.50;17.33;;;-2.60;91.80;;;;;;5053150;28;20184;-84
2022/11/21 07:06:56;;;;;;;24.17;17.57;;;-2.60;91.80;;;;;;5052094;28;20189;-84
2022/11/21 07:09:21;;;;;;;25.53;18.83;;;-2.60;91.70;;;;;;5053577;28;20249;-84
2022/11/21 07:11:47;;;;;;;24.60;17.57;;;-2.60;91.80;;;;;;5052096;28;20185;-85
2022/11/21 07:14:12;;;;;;;24.87;19.47;;;-2.60;91.80;;;;;;5052039;28;20181;-85
2022/11/21 07:16:38;;;;;;;25.43;19.43;;;-2.60;91.80;;;;;;5051892;28;20202;-84
2022/11/21 07:19:04;;;;;;;25.00;18.07;;;-2.60;91.80;;;;;;5053416;28;20238;-84
2022/11/21 07:21:30;;;;;;;24.40;17.47;;;-2.60;91.80;;;;;;5052025;28;20221;-84
2022/11/21 07:23:55;;;;;;;25.80;19.17;;;-2.60;91.80;;;;;;5053369;28;20170;-84
2022/11/21 07:26:21;;;;;;;26.13;19.30;;;-2.60;91.90;;;;;;5052108;28;20198;-85
2022/11/21 07:28:46;;;;;;;24.23;18.30;;;-2.60;91.90;;;;;;5053352;28;20180;-84
2022/11/21 07:31:12;;;;;;;23.23;17.53;;;-2.60;91.90;;;;;;5051919;28;20207;-84
2022/11/21 07:33:37;;;;;;;22.70;18.07;;;-2.50;92.00;;;;;;5051727;28;20231;-85
2022/11/21 07:36:03;;;;;;;28.23;19.97;;;-2.50;92.00;;;;;;5051857;28;20246;-84
2022/11/21 07:38:28;;;;;;;23.77;18.43;;;-2.50;92.00;;;;;;5052296;28;20244;-85
2022/11/21 07:40:57;;;;;;;24.73;17.93;;;-2.50;92.00;;;;;;5052439;28;20179;-85
2022/11/21 07:43:22;;;;;;;26.10;17.97;;;-2.40;92.00;;;;;;5052815;28;20184;-85
2022/11/21 07:45:48;;;;;;;27.27;19.83;;;-2.40;92.00;;;;;;5054351;28;20202;-85
2022/11/21 07:48:13;;;;;;;24.70;18.70;;;-2.50;92.00;;;;;;5053804;28;20180;-85
2022/11/21 07:50:39;;;;;;;25.53;19.17;;;-2.40;92.10;;;;;;5053331;28;20173;-84
2022/11/21 07:53:08;;;;;;;22.77;17.03;;;-2.30;92.20;;;;;;5055609;28;20174;-85
2022/11/21 07:55:34;;;;;;;25.40;17.10;;;-2.30;92.10;;;;;;5054346;28;20193;-84
2022/11/21 07:58:01;;;;;;;24.43;18.27;;;-2.50;92.00;;;;;;5058779;28;20268;-84
2022/11/21 08:00:28;;;;;;;22.43;17.77;;;-2.50;92.10;;;;;;5057249;28;20180;-85
2022/11/21 08:02:54;;;;;;;26.53;18.17;;;-2.50;92.20;;;;;;5057153;28;20193;-85
2022/11/21 08:05:20;;;;;;;25.33;16.03;;;-2.50;92.20;;;;;;5059143;28;20200;-85
2022/11/21 08:07:46;;;;;;;24.47;17.37;;;-2.50;92.20;;;;;;5057593;28;20176;-86
2022/11/21 08:10:11;;;;;;;25.57;18.63;;;-2.50;92.30;;;;;;5057737;28;20507;-85
2022/11/21 08:12:37;;;;;;;24.33;18.33;;;-2.50;92.30;;;;;;5056682;28;20235;-84
2022/11/21 08:15:03;;;;;;;28.67;18.87;;;-2.40;92.40;;;;;;5057122;28;20573;-85
2022/11/21 08:17:29;;;;;;;30.67;18.90;;;-2.40;92.30;;;;;;5056647;28;20278;-85
2022/11/21 08:19:57;;;;;;;24.00;17.37;;;-2.40;92.30;;;;;;5057952;28;20602;-84
2022/11/21 08:22:22;;;;;;;23.93;18.03;;;-2.40;92.30;;;;;;5057332;28;20188;-85
2022/11/21 08:24:48;;;;;;;23.53;18.47;;;-2.30;92.30;;;;;;5057772;28;20272;-85
2022/11/21 08:27:15;;;;;;;22.30;15.53;;;-2.30;92.40;;;;;;5056724;28;20182;-84
2022/11/21 08:29:41;;;;;;;25.60;19.20;;;-2.20;92.40;;;;;;5058464;28;20219;-85
2022/11/21 08:32:06;;;;;;;24.37;18.67;;;-2.20;92.40;;;;;;5058415;28;20634;-85
2022/11/21 08:34:32;;;;;;;24.47;18.53;;;-2.20;92.40;;;;;;5056184;28;20189;-85
2022/11/21 08:36:58;;;;;;;24.50;18.20;;;-2.20;92.40;;;;;;5058969;28;20166;-86
2022/11/21 08:39:24;;;;;;;28.07;20.10;;;-2.10;92.40;;;;;;5057064;28;20177;-85
2022/11/21 08:42:02;;;;;;;25.70;19.90;;;-2.10;92.40;;;;;;5057174;28;20217;-84
2022/11/21 08:44:28;;;;;;;24.23;18.53;;;-2.00;92.40;;;;;;5057497;28;20165;-85
2022/11/21 08:46:55;;;;;;;25.27;19.40;;;-2.00;92.50;;;;;;5058669;28;20561;-86
2022/11/21 08:49:20;;;;;;;27.37;20.10;;;-2.00;92.50;;;;;;5056870;28;20575;-85
2022/11/21 08:51:49;;;;;;;25.97;19.77;;;-1.90;92.60;;;;;;5058934;28;20175;-85
2022/11/21 08:54:16;;;;;;;29.73;19.77;;;-1.90;92.60;;;;;;5056965;28;20174;-85
2022/11/21 08:56:43;;;;;;;27.50;19.70;;;-1.90;92.60;;;;;;5058510;28;20199;-85
2022/11/21 08:59:08;;;;;;;27.53;20.60;;;-1.80;92.70;;;;;;5057320;28;20611;-85
2022/11/21 09:01:33;;;;;;;29.70;22.00;;;-1.70;92.70;;;;;;5056786;28;20260;-85
2022/11/21 09:03:59;;;;;;;27.47;19.27;;;-1.70;92.80;;;;;;5057369;28;20271;-87
2022/11/21 09:06:25;;;;;;;34.93;23.63;;;-1.70;92.90;;;;;;5057111;28;20206;-86
2022/11/21 09:08:50;;;;;;;29.57;21.27;;;-1.60;93.00;;;;;;5055690;28;20671;-87
2022/11/21 09:11:16;;;;;;;30.37;21.80;;;-1.50;93.10;;;;;;5057173;28;20179;-85
2022/11/21 09:13:41;;;;;;;33.90;22.33;;;-1.40;93.20;;;;;;5056763;28;20174;-85
2022/11/21 09:18:54;;;;;;;30.47;21.20;;;-1.30;93.40;;;;;;5061129;28;20172;-85
2022/11/21 09:21:20;;;;;;;24.77;17.03;;;-1.20;93.50;;;;;;5059606;28;20179;-86
2022/11/21 09:23:46;;;;;;;27.80;18.13;;;-1.10;93.60;;;;;;5060977;28;20178;-87
2022/11/21 09:26:12;;;;;;;26.00;17.30;;;-1.00;93.70;;;;;;5059708;28;20216;-87
2022/11/21 09:28:40;;;;;;;29.93;20.70;;;-0.90;93.80;;;;;;5060477;28;20325;-85
2022/11/21 09:31:06;;;;;;;34.60;21.20;;;-0.90;93.80;;;;;;5058646;28;20176;-87
2022/11/21 09:33:31;;;;;;;25.23;15.90;;;-0.80;93.80;;;;;;5059161;28;20179;-85
2022/11/21 09:35:58;;;;;;;44.37;25.10;;;-0.80;93.80;;;;;;5057408;28;20610;-87
2022/11/21 09:38:25;;;;;;;38.23;24.83;;;-0.60;93.90;;;;;;5058488;28;20172;-87
2022/11/21 09:40:55;;;;;;;26.77;16.53;;;-0.60;93.70;;;;;;5060720;28;20164;-86
2022/11/21 09:43:51;;;;;;;38.87;24.87;;;-0.70;93.70;;;;;;5059126;28;20179;-86
2022/11/21 09:46:22;;;;;;;31.97;18.27;;;-0.60;93.90;;;;;;5060801;28;20207;-87
2022/11/21 09:48:57;;;;;;;43.50;22.80;;;-0.70;93.80;;;;;;5059645;28;20588;-86
2022/11/21 09:51:26;;;;;;;41.63;26.87;;;-0.70;93.70;;;;;;5060572;28;20155;-86
2022/11/21 09:54:29;;;;;;;43.50;25.00;;;-0.70;93.80;;;;;;5060009;28;20180;-87
2022/11/21 09:56:55;;;;;;;43.63;23.33;;;-0.60;93.90;;;;;;5060105;28;20547;-87
2022/11/21 09:59:28;;;;;;;30.57;20.03;;;-0.60;93.90;;;;;;5060856;28;20203;-87
2022/11/21 10:01:54;;;;;;;34.63;20.17;;;-0.50;93.80;;;;;;5061681;28;20160;-86
2022/11/21 10:04:20;;;;;;;26.33;16.53;;;-0.50;93.80;;;;;;5060924;28;20183;-87
2022/11/21 10:07:10;;;;;;;40.40;24.70;;;-0.40;93.80;;;;;;5057912;28;20196;-87
2022/11/21 10:10:01;;;;;;;45.13;24.00;;;-0.30;93.70;;;;;;5059458;28;20165;-88
2022/11/21 10:12:58;;;;;;;49.67;28.40;;;-0.20;93.70;;;;;;5058544;28;20174;-85
2022/11/21 10:15:46;;;;;;;37.87;22.10;;;0.00;93.50;;;;;;5061662;28;20223;-86
2022/11/21 10:18:30;;;;;;;48.37;29.50;;;0.10;93.40;;;;;;5058507;28;20233;-88
2022/11/21 10:21:14;;;;;;;48.53;26.43;;;0.10;93.10;;;;;;5056704;28;20206;-87
2022/11/21 10:24:13;;;;;;;47.70;29.63;;;0.30;92.90;;;;;;5058681;28;20188;-87
2022/11/21 10:26:44;;;;;;;43.17;27.40;;;0.40;92.60;;;;;;5057484;28;20580;-87
2022/11/21 10:29:25;;;;;;;46.30;24.90;;;0.50;92.20;;;;;;5055485;28;20170;-87
2022/11/21 10:31:54;;;;;;;37.93;23.63;;;0.50;91.80;;;;;;5054674;28;20226;-88
2022/11/21 10:34:25;;;;;;;37.30;23.73;;;0.70;91.40;;;;;;5054360;28;20206;-86
2022/11/21 10:37:19;;;;;;;41.97;25.67;;;0.80;91.30;;;;;;5053613;28;20181;-86
2022/11/21 10:39:49;;;;;;;39.80;24.77;;;1.00;91.00;;;;;;5054182;28;20179;-86
2022/11/21 10:42:43;;;;;;;39.47;23.93;;;1.00;90.70;;;;;;5053982;28;20202;-87
2022/11/21 10:45:15;;;;;;;24.93;15.20;;;1.00;90.30;;;;;;5055946;28;20210;-87
2022/11/21 10:47:41;;;;;;;33.53;21.53;;;1.00;89.70;;;;;;5056116;28;20163;-88
2022/11/21 10:50:34;;;;;;;30.67;20.50;;;1.10;89.70;;;;;;5054391;28;20170;-87
2022/11/21 10:56:03;;;;;;;32.97;20.37;;;1.30;88.50;;;;;;5055270;28;20202;-87
2022/11/21 10:58:44;;;;;;;29.80;19.93;;;1.50;88.80;;;;;;5052641;28;20277;-87
2022/11/21 11:01:36;;;;;;;35.03;22.40;;;1.60;88.40;;;;;;5052702;28;20168;-87
2022/11/21 11:04:12;;;;;;;24.67;16.07;;;1.70;88.10;;;;;;5049761;28;20194;-87
2022/11/21 11:06:40;;;;;;;28.77;18.97;;;1.70;87.50;;;;;;5052679;28;20209;-87
2022/11/21 11:09:12;;;;;;;27.10;19.43;;;1.80;87.50;;;;;;5052359;28;20186;-86
2022/11/21 11:11:37;;;;;;;24.50;17.10;;;1.90;87.70;;;;;;5052623;28;20529;-86
2022/11/21 11:14:05;;;;;;;31.03;22.20;;;1.90;87.20;;;;;;5053489;28;20179;-88
2022/11/21 11:16:35;;;;;;;25.03;16.80;;;2.10;87.40;;;;;;5052057;28;20202;-89
2022/11/21 11:19:12;;;;;;;25.03;18.67;;;2.20;86.70;;;;;;5053328;28;20176;-87
2022/11/21 11:21:38;;;;;;;22.30;16.63;;;2.20;86.90;;;;;;5052320;28;20589;-87
2022/11/21 11:24:10;;;;;;;24.97;16.90;;;2.30;87.00;;;;;;5053372;28;20183;-87
2022/11/21 11:26:48;;;;;;;21.07;15.70;;;2.20;86.10;;;;;;5051878;28;20200;-86
2022/11/21 11:29:20;;;;;;;24.70;17.67;;;2.30;85.70;;;;;;5052063;28;20180;-87
2022/11/21 11:31:58;;;;;;;22.63;17.07;;;2.30;85.80;;;;;;5052520;28;20175;-87
2022/11/21 11:34:36;;;;;;;24.60;15.60;;;2.60;85.90;;;;;;5052482;28;20187;-86
2022/11/21 11:37:19;;;;;;;24.50;14.90;;;2.70;85.50;;;;;;5053297;28;20176;-87
2022/11/21 11:40:03;;;;;;;15.33;11.80;;;2.80;84.90;;;;;;5052396;28;20184;-87
2022/11/21 11:50:09;;;;;;;19.20;12.93;;;3.00;82.20;;;;;;5053115;28;20625;-86
2022/11/21 11:52:19;;;;;;;20.60;11.87;;;3.20;82.50;;;;;;5053659;28;20198;-86
2022/11/21 11:54:49;;;;;;;15.13;10.43;;;3.30;83.00;;;;;;5052113;28;20231;-86
2022/11/21 11:57:16;;;;;;;17.10;11.73;;;3.10;81.20;;;;;;5052080;28;20176;-86
2022/11/21 11:59:53;;;;;;;18.23;13.17;;;3.20;82.20;;;;;;5053478;28;20178;-86
2022/11/21 12:02:25;;;;;;;12.57;10.63;;;3.40;82.00;;;;;;5052135;28;20165;-86
2022/11/21 12:05:11;;;;;;;15.47;10.90;;;3.20;80.90;;;;;;5051847;28;20223;-86
2022/11/21 12:07:43;;;;;;;15.97;11.60;;;3.20;80.60;;;;;;5053547;28;20623;-86
2022/11/21 12:10:32;;;;;;;13.77;10.77;;;3.10;80.70;;;;;;5052001;28;20218;-86
2022/11/21 12:13:13;;;;;;;16.50;11.03;;;3.20;81.40;;;;;;5051832;28;20233;-85
2022/11/21 12:15:51;;;;;;;15.73;11.83;;;3.00;79.80;;;;;;5052449;28;20566;-85
2022/11/21 12:18:19;;;;;;;15.07;11.83;;;3.10;80.10;;;;;;5051865;28;20176;-86
2022/11/21 12:21:01;;;;;;;13.40;11.10;;;3.10;79.70;;;;;;5053053;28;20256;-86
2022/11/21 12:23:41;;;;;;;12.80;10.13;;;3.10;79.90;;;;;;5051940;28;20180;-85
2022/11/21 12:26:21;;;;;;;13.30;10.60;;;3.10;80.10;;;;;;5051790;28;20204;-86
2022/11/21 12:29:12;;;;;;;15.13;12.00;;;3.20;79.10;;;;;;5053006;28;20243;-86
2022/11/21 12:31:59;;;;;;;11.07;9.73;;;3.20;79.20;;;;;;5053166;28;20171;-87
2022/11/21 12:34:43;;;;;;;15.07;11.07;;;3.10;78.30;;;;;;5051542;28;20196;-87
2022/11/21 12:37:21;;;;;;;13.90;10.90;;;3.10;79.60;;;;;;5052410;28;20268;-88
2022/11/21 12:40:02;;;;;;;16.60;12.87;;;3.00;79.20;;;;;;5051513;28;20164;-87
2022/11/21 12:42:48;;;;;;;12.93;11.10;;;3.20;78.90;;;;;;5053552;28;20582;-88
2022/11/21 12:45:31;;;;;;;14.93;11.70;;;3.30;79.70;;;;;;5056018;28;20196;-88
2022/11/21 12:54:45;;;;;;;14.43;10.73;;;3.00;78.80;;;;;;5056639;28;20240;-88
2022/11/21 12:57:11;;;;;;;16.67;12.20;;;3.00;78.60;;;;;;5055581;28;20167;-86
2022/11/21 13:00:02;;;;;;;14.43;11.03;;;3.10;78.50;;;;;;5056576;28;20282;-87
2022/11/21 13:02:38;;;;;;;13.33;11.70;;;3.20;78.60;;;;;;5056685;28;20173;-88
2022/11/21 13:05:08;;;;;;;13.27;11.50;;;3.10;78.40;;;;;;5056350;28;20200;-88